Time;durP1;ratioP1;P1;durP2;ratioP2;P2;SDS_P1;SDS_P2;PMS_P1;PMS_P2;Temp;Humidity;BMP_temperature;BMP_pressure;BME280_temperature;BME280_humidity;BME280_pressure;Samples;Min_cycle;Max_cycle;Signal;HPM_P1;HPM_P2
2022/03/29 00:02:24;;;;;;;;;;;;;;;11.34;28.52;92696.75;2055491;70;20746;-75
2022/03/29 00:04:51;;;;;;;;;;;;;;;11.45;29.21;92703.72;2055962;70;20047;-76
2022/03/29 00:07:16;;;;;;;;;;;;;;;11.26;28.80;92698.38;2055596;69;20054;-75
2022/03/29 00:09:42;;;;;;;;;;;;;;;10.86;31.19;92700.28;2055534;70;20066;-75
2022/03/29 00:15:38;;;;;;;;;;;;;;;11.00;30.48;92684.22;2055439;69;20058;-77
2022/03/29 00:18:03;;;;;;;;;;;;;;;10.75;30.02;92689.75;2055530;70;20054;-77
2022/03/29 00:20:29;;;;;;;;;;;;;;;10.79;30.85;92690.72;2068472;69;20054;-76
2022/03/29 00:22:54;;;;;;;;;;;;;;;10.60;31.26;92688.91;2055446;70;20486;-75
2022/03/29 00:25:20;;;;;;;;;;;;;;;10.78;30.31;92688.53;2055400;69;20090;-75
2022/03/29 00:27:49;;;;;;;;;;;;;;;10.54;31.75;92685.72;2055524;70;20108;-75
2022/03/29 00:30:16;;;;;;;;;;;;;;;10.57;30.83;92683.75;2055337;70;20498;-75
2022/03/29 00:32:43;;;;;;;;;;;;;;;10.71;30.92;92683.88;2055606;70;20495;-75
2022/03/29 00:35:09;;;;;;;;;;;;;;;9.99;32.84;92673.13;2055428;69;20517;-76
2022/03/29 00:37:35;;;;;;;;;;;;;;;10.06;32.37;92670.09;2055620;70;20061;-76
2022/03/29 00:40:00;;;;;;;;;;;;;;;10.16;33.39;92684.06;2055519;70;20077;-76
2022/03/29 00:42:26;;;;;;;;;;;;;;;9.86;33.87;92678.03;2055503;69;20046;-75
2022/03/29 00:44:53;;;;;;;;;;;;;;;9.91;34.09;92679.75;2055305;70;20081;-75
2022/03/29 00:47:18;;;;;;;;;;;;;;;10.15;32.17;92665.72;2055564;69;20054;-75
2022/03/29 00:49:44;;;;;;;;;;;;;;;10.05;33.53;92665.09;2055425;69;20523;-76
2022/03/29 00:52:09;;;;;;;;;;;;;;;9.93;33.16;92665.81;2055584;69;20551;-75
2022/03/29 00:54:38;;;;;;;;;;;;;;;9.62;34.07;92662.41;2055442;70;20078;-78
2022/03/29 00:57:05;;;;;;;;;;;;;;;9.60;34.16;92663.03;2055565;70;20447;-77
2022/03/29 00:59:30;;;;;;;;;;;;;;;9.34;35.18;92662.06;2055193;69;20219;-76
2022/03/29 01:02:00;;;;;;;;;;;;;;;9.13;36.01;92654.41;2055306;70;20054;-76
2022/03/29 01:04:29;;;;;;;;;;;;;;;9.23;36.12;92654.34;2055494;70;20066;-76
2022/03/29 01:06:58;;;;;;;;;;;;;;;9.49;33.17;92655.31;2055596;70;20503;-76
2022/03/29 01:09:28;;;;;;;;;;;;;;;9.52;34.92;92650.53;2055600;70;20058;-75
2022/03/29 01:11:54;;;;;;;;;;;;;;;9.36;34.97;92648.16;2055510;69;20066;-76
2022/03/29 01:14:21;;;;;;;;;;;;;;;9.55;34.28;92649.34;2068188;69;20489;-76
2022/03/29 01:19:31;;;;;;;;;;;;;;;9.63;32.72;92642.16;2055430;70;20113;-75
2022/03/29 01:21:57;;;;;;;;;;;;;;;9.67;33.23;92639.59;2055348;70;20082;-75
2022/03/29 01:24:23;;;;;;;;;;;;;;;9.35;34.16;92631.94;2068395;69;20154;-75
2022/03/29 01:26:50;;;;;;;;;;;;;;;9.29;35.29;92626.63;2055513;70;20049;-76
2022/03/29 01:29:15;;;;;;;;;;;;;;;9.05;35.86;92623.00;2055566;70;20042;-76
2022/03/29 01:31:41;;;;;;;;;;;;;;;9.08;35.86;92621.06;2055682;69;20046;-75
2022/03/29 01:34:07;;;;;;;;;;;;;;;9.18;34.50;92612.56;2055629;70;20050;-75
2022/03/29 01:36:32;;;;;;;;;;;;;;;9.27;35.83;92612.47;2055722;70;20121;-75
2022/03/29 01:38:59;;;;;;;;;;;;;;;9.46;34.44;92599.56;2068582;69;20046;-77
2022/03/29 01:41:26;;;;;;;;;;;;;;;9.48;34.67;92608.13;2068590;69;20054;-77
2022/03/29 01:43:52;;;;;;;;;;;;;;;8.98;36.00;92600.72;2055621;70;20116;-77
2022/03/29 01:46:18;;;;;;;;;;;;;;;9.13;35.53;92598.25;2055563;70;20065;-78
2022/03/29 01:48:43;;;;;;;;;;;;;;;8.91;36.76;92597.53;2068708;69;20062;-77
2022/03/29 01:51:10;;;;;;;;;;;;;;;8.96;36.22;92598.53;2055750;69;20430;-76
2022/03/29 01:53:36;;;;;;;;;;;;;;;8.62;37.39;92602.63;2055707;70;20058;-75
2022/03/29 01:56:01;;;;;;;;;;;;;;;8.87;36.34;92597.28;2065919;69;20065;-76
2022/03/29 01:58:29;;;;;;;;;;;;;;;8.79;36.78;92599.53;2055797;70;20054;-76
2022/03/29 02:00:55;;;;;;;;;;;;;;;9.05;33.94;92602.59;2055539;69;20050;-76
2022/03/29 02:03:21;;;;;;;;;;;;;;;8.95;36.64;92599.16;2068691;69;20498;-75
2022/03/29 02:05:46;;;;;;;;;;;;;;;8.87;36.13;92597.28;2055637;69;20057;-76
2022/03/29 02:08:12;;;;;;;;;;;;;;;8.62;37.69;92605.44;2055690;70;20074;-75
2022/03/29 02:10:38;;;;;;;;;;;;;;;8.58;38.05;92605.19;2068659;69;20053;-76
2022/03/29 02:13:03;;;;;;;;;;;;;;;8.52;37.78;92594.28;2055868;70;20050;-76
2022/03/29 02:15:29;;;;;;;;;;;;;;;8.60;37.26;92599.69;2055508;70;20200;-77
2022/03/29 02:17:55;;;;;;;;;;;;;;;8.93;35.73;92596.19;2055676;70;20057;-76
2022/03/29 02:20:21;;;;;;;;;;;;;;;9.01;33.38;92585.50;2055646;69;20164;-76
2022/03/29 02:22:46;;;;;;;;;;;;;;;8.94;35.58;92592.81;2055664;69;20428;-76
2022/03/29 02:25:12;;;;;;;;;;;;;;;8.61;37.07;92584.31;2055842;70;20517;-77
2022/03/29 02:27:38;;;;;;;;;;;;;;;8.58;36.94;92583.47;2055650;70;20054;-77
2022/03/29 02:30:05;;;;;;;;;;;;;;;8.16;37.99;92586.94;2068461;69;20054;-77
2022/03/29 02:32:30;;;;;;;;;;;;;;;8.44;37.12;92576.91;2068783;69;20050;-77
2022/03/29 02:34:56;;;;;;;;;;;;;;;8.33;38.02;92578.25;2055740;70;20119;-76
2022/03/29 02:37:21;;;;;;;;;;;;;;;8.34;38.22;92573.41;2055688;70;20101;-76
2022/03/29 02:39:47;;;;;;;;;;;;;;;8.27;39.02;92571.53;2055695;70;20086;-76
2022/03/29 02:42:12;;;;;;;;;;;;;;;8.34;38.22;92565.72;2055655;70;20214;-76
2022/03/29 02:44:37;;;;;;;;;;;;;;;8.14;38.69;92572.78;2055487;70;20437;-76
2022/03/29 02:47:03;;;;;;;;;;;;;;;8.31;37.84;92566.91;2055552;69;20402;-76
2022/03/29 02:49:29;;;;;;;;;;;;;;;8.63;35.62;92559.19;2068584;69;20061;-76
2022/03/29 02:51:54;;;;;;;;;;;;;;;8.31;38.46;92561.31;2055535;70;20130;-76
2022/03/29 02:54:20;;;;;;;;;;;;;;;8.16;39.22;92561.69;2055690;70;20053;-76
2022/03/29 02:56:46;;;;;;;;;;;;;;;8.33;36.30;92558.63;2055706;70;20050;-76
2022/03/29 02:59:12;;;;;;;;;;;;;;;8.39;36.48;92549.94;2068269;69;20070;-76
2022/03/29 03:01:37;;;;;;;;;;;;;;;8.10;38.71;92552.88;2055524;70;20046;-76
2022/03/29 03:04:02;;;;;;;;;;;;;;;8.17;39.15;92551.22;2055484;70;20221;-76
2022/03/29 03:06:28;;;;;;;;;;;;;;;8.05;38.88;92551.84;2055717;69;20149;-76
2022/03/29 03:08:54;;;;;;;;;;;;;;;8.27;35.32;92543.47;2055527;70;20111;-76
2022/03/29 03:11:20;;;;;;;;;;;;;;;8.29;37.92;92547.16;2055535;70;20047;-76
2022/03/29 03:13:46;;;;;;;;;;;;;;;7.97;39.21;92550.56;2055411;69;20061;-76
2022/03/29 03:16:12;;;;;;;;;;;;;;;8.03;38.87;92540.53;2055508;70;20050;-76
2022/03/29 03:18:38;;;;;;;;;;;;;;;7.94;39.20;92543.38;2055620;70;20057;-76
2022/03/29 03:21:03;;;;;;;;;;;;;;;8.10;38.30;92539.56;2055545;70;20057;-76
2022/03/29 03:23:29;;;;;;;;;;;;;;;8.04;38.61;92539.19;2055462;69;20151;-76
2022/03/29 03:25:54;;;;;;;;;;;;;;;7.67;39.88;92544.38;2055467;70;20054;-76
2022/03/29 03:28:20;;;;;;;;;;;;;;;8.12;37.58;92545.34;2055510;70;20062;-76
2022/03/29 03:30:45;;;;;;;;;;;;;;;7.96;39.24;92532.28;2055393;70;20046;-76
2022/03/29 03:33:11;;;;;;;;;;;;;;;7.98;39.03;92532.44;2055567;69;20266;-76
2022/03/29 03:35:36;;;;;;;;;;;;;;;7.78;39.69;92529.72;2055436;70;20054;-76
2022/03/29 03:38:02;;;;;;;;;;;;;;;7.82;39.63;92532.06;2068445;69;20149;-76
2022/03/29 03:40:29;;;;;;;;;;;;;;;7.68;40.24;92525.50;2055445;70;20090;-76
2022/03/29 03:42:54;;;;;;;;;;;;;;;7.77;40.31;92527.53;2055487;70;20109;-76
2022/03/29 03:45:20;;;;;;;;;;;;;;;7.67;38.70;92526.84;2068356;69;20066;-76
2022/03/29 03:47:46;;;;;;;;;;;;;;;7.59;40.64;92524.19;2068535;69;20470;-76
2022/03/29 03:50:12;;;;;;;;;;;;;;;7.77;38.23;92522.66;2068385;69;20645;-76
2022/03/29 03:52:37;;;;;;;;;;;;;;;7.88;38.45;92516.41;2055407;69;20479;-76
2022/03/29 03:55:04;;;;;;;;;;;;;;;7.71;39.71;92516.63;2055390;70;20056;-76
2022/03/29 03:57:30;;;;;;;;;;;;;;;7.72;39.44;92517.38;2068419;69;20426;-76
2022/03/29 03:59:56;;;;;;;;;;;;;;;7.69;39.85;92508.06;2055228;69;20050;-75
2022/03/29 04:02:22;;;;;;;;;;;;;;;7.44;40.66;92505.69;2068438;69;20062;-76
2022/03/29 04:04:47;;;;;;;;;;;;;;;7.61;40.77;92508.28;2068378;69;20054;-76
2022/03/29 04:07:14;;;;;;;;;;;;;;;7.49;40.99;92493.44;2055376;70;20050;-75
2022/03/29 04:09:39;;;;;;;;;;;;;;;7.47;40.71;92495.34;2068642;69;20486;-75
2022/03/29 04:12:06;;;;;;;;;;;;;;;7.54;40.51;92492.38;2055869;70;20123;-76
2022/03/29 04:14:31;;;;;;;;;;;;;;;7.80;39.17;92482.22;2068971;69;20106;-75
2022/03/29 04:16:57;;;;;;;;;;;;;;;7.51;40.81;92487.22;2068919;69;20086;-75
2022/03/29 04:19:22;;;;;;;;;;;;;;;7.64;40.12;92473.44;2055874;70;20053;-75
2022/03/29 04:21:48;;;;;;;;;;;;;;;7.68;40.24;92486.28;2068866;69;20058;-76
2022/03/29 04:24:13;;;;;;;;;;;;;;;7.75;40.20;92491.69;2055860;69;20054;-77
2022/03/29 04:26:39;;;;;;;;;;;;;;;7.71;37.65;92480.22;2056094;70;20561;-76
2022/03/29 04:29:05;;;;;;;;;;;;;;;7.75;39.01;92474.16;2055858;69;20058;-76
2022/03/29 04:31:30;;;;;;;;;;;;;;;7.68;39.70;92473.00;2055827;69;20062;-76
2022/03/29 04:33:58;;;;;;;;;;;;;;;7.40;41.56;92471.81;2068942;69;20053;-77
2022/03/29 04:36:24;;;;;;;;;;;;;;;7.47;40.82;92468.09;2055837;69;20054;-77
2022/03/29 04:38:50;;;;;;;;;;;;;;;7.31;41.61;92455.78;2055848;70;20084;-76
2022/03/29 04:41:16;;;;;;;;;;;;;;;7.41;41.37;92450.13;2056086;70;20046;-76
2022/03/29 04:43:41;;;;;;;;;;;;;;;7.56;41.39;92449.75;2055837;70;20076;-76
2022/03/29 04:46:07;;;;;;;;;;;;;;;7.56;39.05;92449.75;2068795;69;20054;-76
2022/03/29 04:48:32;;;;;;;;;;;;;;;7.54;40.50;92444.03;2068863;69;20169;-75
2022/03/29 04:50:58;;;;;;;;;;;;;;;7.57;38.75;92445.63;2055808;70;20066;-76
2022/03/29 04:53:23;;;;;;;;;;;;;;;7.50;40.97;92446.53;2055842;70;20059;-76
2022/03/29 04:55:50;;;;;;;;;;;;;;;7.39;41.63;92457.06;2055807;70;20046;-77
2022/03/29 04:58:16;;;;;;;;;;;;;;;7.27;42.88;92455.50;2055901;69;20062;-77
2022/03/29 05:00:42;;;;;;;;;;;;;;;7.23;42.80;92449.63;2055592;69;20410;-76
2022/03/29 05:03:07;;;;;;;;;;;;;;;7.28;42.19;92448.56;2055778;70;20559;-76
2022/03/29 05:05:33;;;;;;;;;;;;;;;7.39;40.53;92445.88;2055782;70;20058;-76
2022/03/29 05:07:59;;;;;;;;;;;;;;;7.25;41.25;92447.69;2055894;70;20058;-76
2022/03/29 05:10:24;;;;;;;;;;;;;;;7.15;42.27;92438.63;2068811;69;20083;-76
2022/03/29 05:12:51;;;;;;;;;;;;;;;7.27;42.05;92445.03;2055842;70;20066;-76
2022/03/29 05:15:17;;;;;;;;;;;;;;;7.22;41.32;92450.94;2055631;70;20046;-76
2022/03/29 05:17:43;;;;;;;;;;;;;;;7.26;42.41;92449.16;2055783;69;20070;-77
2022/03/29 05:20:09;;;;;;;;;;;;;;;7.29;42.34;92450.06;2055630;70;20050;-76
2022/03/29 05:22:47;;;;;;;;;;;;;;;7.09;42.51;92450.09;2055780;70;20058;-77
2022/03/29 05:25:13;;;;;;;;;;;;;;;7.19;42.40;92454.94;2055737;69;20142;-76
2022/03/29 05:27:40;;;;;;;;;;;;;;;7.34;42.29;92441.31;2068754;69;20419;-76
2022/03/29 05:30:05;;;;;;;;;;;;;;;7.35;42.26;92456.06;2055576;70;20510;-77
2022/03/29 05:32:31;;;;;;;;;;;;;;;7.43;41.39;92451.00;2068720;69;20066;-77
2022/03/29 05:34:56;;;;;;;;;;;;;;;7.51;40.89;92453.63;2055729;69;20046;-77
2022/03/29 05:37:22;;;;;;;;;;;;;;;7.55;41.15;92457.44;2055757;69;20112;-77
2022/03/29 05:39:49;;;;;;;;;;;;;;;7.51;42.46;92448.00;2055995;69;20054;-77
2022/03/29 05:42:14;;;;;;;;;;;;;;;7.45;43.04;92450.41;2055697;70;20050;-77
2022/03/29 05:44:40;;;;;;;;;;;;;;;7.38;41.77;92463.28;2055576;70;20054;-76
2022/03/29 05:49:51;;;;;;;;;;;;;;;7.52;42.85;92447.44;2055668;70;20050;-76
2022/03/29 05:52:17;;;;;;;;;;;;;;;7.73;41.96;92445.97;2055692;70;20050;-77
2022/03/29 05:54:45;;;;;;;;;;;;;;;7.82;40.78;92450.78;2056273;70;20111;-76
2022/03/29 05:57:11;;;;;;;;;;;;;;;7.86;42.73;92453.88;2055722;69;20115;-76
2022/03/29 05:59:36;;;;;;;;;;;;;;;7.86;42.68;92442.66;2055513;69;20058;-76
2022/03/29 06:02:04;;;;;;;;;;;;;;;7.99;41.55;92449.81;2055591;70;20138;-76
2022/03/29 06:04:32;;;;;;;;;;;;;;;7.71;43.02;92446.59;2055627;70;20062;-77
2022/03/29 06:06:58;;;;;;;;;;;;;;;7.79;42.44;92444.34;2055642;70;20049;-76
2022/03/29 06:09:24;;;;;;;;;;;;;;;8.03;42.95;92450.06;2055683;70;20051;-76
2022/03/29 06:11:49;;;;;;;;;;;;;;;8.11;42.20;92445.75;2055674;70;20050;-76
2022/03/29 06:14:16;;;;;;;;;;;;;;;8.37;38.57;92448.81;2055484;70;20422;-77
2022/03/29 06:16:42;;;;;;;;;;;;;;;8.39;41.29;92449.69;2055791;70;20074;-76
2022/03/29 06:19:09;;;;;;;;;;;;;;;8.36;42.70;92448.06;2055648;70;20116;-76
2022/03/29 06:21:36;;;;;;;;;;;;;;;8.42;42.15;92441.38;2068601;69;20070;-75
2022/03/29 06:24:02;;;;;;;;;;;;;;;8.59;41.26;92435.47;2055586;70;20070;-76
2022/03/29 06:26:28;;;;;;;;;;;;;;;8.63;41.39;92433.66;2055632;70;20054;-76
2022/03/29 06:28:53;;;;;;;;;;;;;;;8.87;38.69;92442.88;2055452;70;20146;-77
2022/03/29 06:31:19;;;;;;;;;;;;;;;9.02;37.84;92438.13;2055539;70;20094;-75
2022/03/29 06:33:47;;;;;;;;;;;;;;;9.02;38.44;92438.88;2055596;70;20061;-75
2022/03/29 06:36:13;;;;;;;;;;;;;;;9.13;39.02;92445.88;2055632;70;20106;-74
2022/03/29 06:38:38;;;;;;;;;;;;;;;9.24;38.06;92439.53;2055535;70;20500;-75
2022/03/29 06:41:04;;;;;;;;;;;;;;;9.33;37.63;92429.50;2055553;70;20138;-75
2022/03/29 06:43:29;;;;;;;;;;;;;;;9.35;38.64;92432.47;2055708;70;20082;-76
2022/03/29 06:45:55;;;;;;;;;;;;;;;9.48;36.16;92431.84;2055467;70;20077;-75
2022/03/29 06:48:21;;;;;;;;;;;;;;;9.57;36.22;92435.88;2055920;70;20433;-77
2022/03/29 06:50:46;;;;;;;;;;;;;;;8.84;40.32;92435.69;2055546;70;20510;-77
2022/03/29 06:53:12;;;;;;;;;;;;;;;9.17;40.70;92432.06;2068556;69;20133;-76
2022/03/29 06:55:38;;;;;;;;;;;;;;;9.50;40.27;92428.44;2055503;70;20054;-76
2022/03/29 06:58:04;;;;;;;;;;;;;;;9.58;41.20;92426.09;2055715;70;20207;-76
2022/03/29 07:00:30;;;;;;;;;;;;;;;9.72;40.73;92440.28;2055435;69;20107;-76
2022/03/29 07:02:55;;;;;;;;;;;;;;;9.94;37.12;92427.50;2055490;70;20168;-77
2022/03/29 07:05:21;;;;;;;;;;;;;;;10.06;37.57;92428.22;2055537;70;20074;-76
2022/03/29 07:07:47;;;;;;;;;;;;;;;10.29;37.10;92430.28;2055483;70;20561;-76
2022/03/29 07:12:57;;;;;;;;;;;;;;;10.51;37.62;92432.91;2066380;69;20085;-76
2022/03/29 07:15:23;;;;;;;;;;;;;;;10.61;36.36;92430.66;2055260;70;20140;-75
2022/03/29 07:17:49;;;;;;;;;;;;;;;10.65;36.28;92428.06;2055400;70;20492;-76
2022/03/29 07:20:19;;;;;;;;;;;;;;;10.35;36.68;92432.69;2055455;69;20058;-77
2022/03/29 07:22:47;;;;;;;;;;;;;;;10.45;38.61;92438.94;2068343;69;20082;-76
2022/03/29 07:25:13;;;;;;;;;;;;;;;10.80;37.58;92435.22;2055428;69;20047;-76
2022/03/29 07:27:39;;;;;;;;;;;;;;;10.78;38.44;92435.13;2055350;69;20054;-77
2022/03/29 07:30:05;;;;;;;;;;;;;;;10.80;37.65;92433.13;2055259;69;20050;-77
2022/03/29 07:32:31;;;;;;;;;;;;;;;10.92;36.94;92433.09;2068342;69;20055;-75
2022/03/29 07:34:56;;;;;;;;;;;;;;;11.27;35.37;92426.50;2055325;70;20076;-74
2022/03/29 07:37:22;;;;;;;;;;;;;;;11.43;37.42;92424.56;2055429;70;20054;-76
2022/03/29 07:39:48;;;;;;;;;;;;;;;11.56;33.63;92420.31;2068349;69;20049;-74
2022/03/29 07:42:13;;;;;;;;;;;;;;;11.69;35.30;92423.13;2068312;69;20062;-75
2022/03/29 07:44:39;;;;;;;;;;;;;;;11.86;34.20;92413.44;2055592;70;20057;-76
2022/03/29 07:47:04;;;;;;;;;;;;;;;11.92;34.74;92416.56;2055872;69;20491;-80
2022/03/29 07:49:31;;;;;;;;;;;;;;;11.98;34.33;92412.59;2055861;70;20058;-76
2022/03/29 07:51:56;;;;;;;;;;;;;;;12.18;34.22;92399.50;2068951;69;20046;-76
2022/03/29 07:54:22;;;;;;;;;;;;;;;12.53;33.48;92399.13;2056051;70;20111;-77
2022/03/29 07:56:49;;;;;;;;;;;;;;;12.48;33.20;92399.56;2055872;70;20132;-78
2022/03/29 07:59:14;;;;;;;;;;;;;;;12.69;32.56;92399.16;2068787;69;20111;-77
2022/03/29 08:01:40;;;;;;;;;;;;;;;12.89;33.13;92397.31;2068911;69;20483;-77
2022/03/29 08:04:05;;;;;;;;;;;;;;;13.34;32.22;92390.22;2055898;70;20471;-77
2022/03/29 08:06:31;;;;;;;;;;;;;;;13.61;31.61;92389.31;2055893;70;20499;-77
2022/03/29 08:08:56;;;;;;;;;;;;;;;13.67;30.84;92393.13;2068880;69;20059;-76
2022/03/29 08:11:22;;;;;;;;;;;;;;;13.83;30.48;92386.72;2055853;69;20046;-77
2022/03/29 08:13:49;;;;;;;;;;;;;;;14.20;29.89;92383.34;2055857;70;20066;-77
2022/03/29 08:16:14;;;;;;;;;;;;;;;13.90;28.46;92386.34;2068878;69;20047;-76
2022/03/29 08:18:40;;;;;;;;;;;;;;;14.06;28.70;92391.25;2068944;69;20137;-79
2022/03/29 08:21:47;;;;;;;;;;;;;;;14.46;28.09;92380.91;2055863;69;20055;-77
2022/03/29 08:23:51;;;;;;;;;;;;;;;14.63;29.00;92385.91;2056012;70;20062;-77
2022/03/29 08:26:16;;;;;;;;;;;;;;;14.81;29.23;92380.25;2055791;69;20057;-78
2022/03/29 08:28:42;;;;;;;;;;;;;;;14.84;29.24;92381.75;2055807;70;20391;-78
2022/03/29 08:31:08;;;;;;;;;;;;;;;15.07;28.58;92379.81;2055810;70;20073;-79
2022/03/29 08:33:33;;;;;;;;;;;;;;;14.68;27.49;92364.13;2055886;70;20072;-79
2022/03/29 08:35:59;;;;;;;;;;;;;;;14.63;28.18;92371.00;2068761;69;20055;-78
2022/03/29 08:38:26;;;;;;;;;;;;;;;14.56;27.99;92364.34;2056034;70;20050;-78
2022/03/29 08:40:57;;;;;;;;;;;;;;;14.65;27.78;92354.09;2055908;69;20505;-78
2022/03/29 08:43:24;;;;;;;;;;;;;;;14.79;27.34;92351.81;2068765;69;20146;-78
2022/03/29 08:45:50;;;;;;;;;;;;;;;14.93;27.09;92355.19;2068675;69;20046;-77
2022/03/29 08:48:15;;;;;;;;;;;;;;;15.66;27.29;92348.03;2055672;70;20046;-78
2022/03/29 08:50:42;;;;;;;;;;;;;;;15.71;25.53;92346.78;2068597;69;20096;-78
2022/03/29 08:53:11;;;;;;;;;;;;;;;15.25;26.66;92350.06;2068671;69;20059;-78
2022/03/29 08:55:41;;;;;;;;;;;;;;;16.00;26.88;92340.03;2055791;69;20132;-77
2022/03/29 08:58:06;;;;;;;;;;;;;;;16.57;26.18;92338.38;2055817;70;20058;-77
2022/03/29 09:00:32;;;;;;;;;;;;;;;16.33;25.17;92332.63;2068687;69;20488;-78
2022/03/29 09:02:58;;;;;;;;;;;;;;;16.64;24.75;92337.22;2068718;69;20050;-77
2022/03/29 09:05:24;;;;;;;;;;;;;;;16.28;24.93;92328.91;2055780;70;20055;-78
2022/03/29 09:07:50;;;;;;;;;;;;;;;16.94;24.65;92321.13;2055728;70;20437;-79
2022/03/29 09:10:16;;;;;;;;;;;;;;;17.55;25.52;92325.09;2055691;70;20137;-78
2022/03/29 09:12:42;;;;;;;;;;;;;;;17.62;23.82;92314.59;2056002;70;20058;-77
2022/03/29 09:15:08;;;;;;;;;;;;;;;17.90;24.44;92306.16;2055655;69;20139;-76
2022/03/29 09:17:35;;;;;;;;;;;;;;;17.82;24.89;92308.78;2055640;70;20051;-76
2022/03/29 09:20:10;;;;;;;;;;;;;;;17.61;25.63;92305.34;2055660;69;20086;-79
2022/03/29 09:22:44;;;;;;;;;;;;;;;17.84;23.55;92303.16;2055654;69;20058;-77
2022/03/29 09:25:14;;;;;;;;;;;;;;;18.19;22.27;92296.25;2068731;69;20050;-77
2022/03/29 09:28:00;;;;;;;;;;;;;;;18.31;22.72;92295.84;2055643;70;20059;-78
2022/03/29 09:30:38;;;;;;;;;;;;;;;18.64;21.28;92291.69;2055529;69;20050;-78
2022/03/29 09:33:07;;;;;;;;;;;;;;;18.36;22.20;92286.00;2055765;70;20055;-79
2022/03/29 09:35:33;;;;;;;;;;;;;;;18.68;23.15;92283.22;2068701;69;20050;-77
2022/03/29 09:37:59;;;;;;;;;;;;;;;18.11;23.22;92296.06;2068728;69;20050;-78
2022/03/29 09:40:34;;;;;;;;;;;;;;;17.82;23.23;92280.31;2055643;70;20115;-77
2022/03/29 09:43:21;;;;;;;;;;;;;;;17.58;23.65;92281.06;2055721;69;20050;-76
2022/03/29 09:45:48;;;;;;;;;;;;;;;16.92;23.37;92277.72;2055509;70;20058;-77
2022/03/29 09:48:32;;;;;;;;;;;;;;;17.02;24.20;92273.03;2055628;69;20141;-77
2022/03/29 09:51:02;;;;;;;;;;;;;;;17.81;23.19;92273.88;2055620;70;20047;-77
2022/03/29 09:53:48;;;;;;;;;;;;;;;17.70;23.22;92270.03;2065863;69;20130;-77
2022/03/29 09:56:15;;;;;;;;;;;;;;;17.25;23.59;92265.91;2055492;70;20053;-76
2022/03/29 09:58:41;;;;;;;;;;;;;;;18.19;23.25;92253.50;2055497;69;20050;-76
2022/03/29 10:01:21;;;;;;;;;;;;;;;18.00;23.51;92255.16;2055466;70;20050;-80
2022/03/29 10:03:47;;;;;;;;;;;;;;;17.90;24.11;92258.47;2055876;70;20486;-83
2022/03/29 10:06:12;;;;;;;;;;;;;;;18.45;23.63;92253.47;2068548;69;20072;-79
2022/03/29 10:11:24;;;;;;;;;;;;;;;19.21;22.58;92238.84;2055559;70;20054;-79
2022/03/29 10:13:50;;;;;;;;;;;;;;;19.91;22.19;92235.25;2068502;69;20517;-79
2022/03/29 10:16:16;;;;;;;;;;;;;;;19.40;22.70;92228.53;2055570;70;20038;-81
2022/03/29 10:18:43;;;;;;;;;;;;;;;20.12;20.98;92224.94;2068607;69;20159;-79
2022/03/29 10:21:16;;;;;;;;;;;;;;;19.42;20.67;92209.31;2055528;69;20051;-81
2022/03/29 10:23:45;;;;;;;;;;;;;;;20.12;20.95;92205.66;2055720;70;20497;-80
2022/03/29 10:26:16;;;;;;;;;;;;;;;20.94;19.69;92198.41;2055530;70;20503;-80
2022/03/29 10:28:41;;;;;;;;;;;;;;;21.27;18.87;92205.31;2055558;69;20092;-80
2022/03/29 10:31:26;;;;;;;;;;;;;;;20.47;19.57;92191.94;2068669;69;20090;-80
2022/03/29 10:34:09;;;;;;;;;;;;;;;21.11;19.04;92188.63;2055855;69;20433;-80
2022/03/29 10:36:54;;;;;;;;;;;;;;;21.12;19.30;92192.94;2055568;70;20057;-80
2022/03/29 10:39:21;;;;;;;;;;;;;;;21.13;20.02;92185.09;2055509;70;20046;-79
2022/03/29 10:41:48;;;;;;;;;;;;;;;21.76;19.83;92185.88;2055448;69;20055;-78
2022/03/29 10:44:14;;;;;;;;;;;;;;;21.92;19.72;92171.72;2068391;69;20429;-79
2022/03/29 10:46:41;;;;;;;;;;;;;;;21.81;18.10;92168.03;2055482;69;20050;-76
2022/03/29 10:49:18;;;;;;;;;;;;;;;21.30;18.73;92155.22;2068482;69;20574;-76
2022/03/29 10:51:43;;;;;;;;;;;;;;;22.77;19.39;92156.69;2055532;70;20058;-79
2022/03/29 10:54:26;;;;;;;;;;;;;;;22.36;17.83;92152.78;2055508;70;20172;-77
2022/03/29 10:57:04;;;;;;;;;;;;;;;21.97;19.41;92140.97;2068447;69;20476;-79
2022/03/29 10:59:30;;;;;;;;;;;;;;;21.78;19.48;92140.06;2055281;69;20053;-78
2022/03/29 11:02:08;;;;;;;;;;;;;;;21.73;19.49;92124.97;2056101;70;20050;-78
2022/03/29 11:04:34;;;;;;;;;;;;;;;21.53;19.11;92130.47;2055635;69;20495;-79
2022/03/29 11:07:06;;;;;;;;;;;;;;;21.46;19.29;92126.13;2055442;69;20046;-76
2022/03/29 11:09:32;;;;;;;;;;;;;;;22.37;18.15;92122.72;2068439;69;20046;-79
2022/03/29 11:11:58;;;;;;;;;;;;;;;22.62;18.91;92115.72;2068452;69;20054;-78
2022/03/29 11:14:34;;;;;;;;;;;;;;;22.37;18.79;92108.38;2068228;69;20131;-79
2022/03/29 11:17:11;;;;;;;;;;;;;;;22.00;18.02;92099.44;2055404;70;20054;-78
2022/03/29 11:19:38;;;;;;;;;;;;;;;21.88;18.66;92100.03;2068596;69;20115;-76
2022/03/29 11:22:22;;;;;;;;;;;;;;;21.68;18.85;92094.13;2066059;69;20120;-75
2022/03/29 11:24:49;;;;;;;;;;;;;;;20.46;19.93;92084.72;2055838;70;20053;-76
2022/03/29 11:27:22;;;;;;;;;;;;;;;21.02;20.17;92076.19;2055884;70;20120;-76
2022/03/29 11:29:47;;;;;;;;;;;;;;;21.52;19.65;92081.06;2054798;70;20077;-75
2022/03/29 11:32:17;;;;;;;;;;;;;;;21.79;18.53;92072.75;2055266;69;20043;-74
2022/03/29 11:34:43;;;;;;;;;;;;;;;21.17;19.40;92076.38;2054765;70;20362;-75
2022/03/29 11:37:24;;;;;;;;;;;;;;;21.57;19.74;92070.38;2055352;70;20051;-75
2022/03/29 11:39:50;;;;;;;;;;;;;;;21.71;19.51;92064.06;2055633;70;20093;-75
2022/03/29 11:42:15;;;;;;;;;;;;;;;21.94;19.84;92059.97;2055528;70;20082;-81
2022/03/29 11:44:45;;;;;;;;;;;;;;;22.19;19.57;92052.34;2055438;70;20061;-75
2022/03/29 11:47:11;;;;;;;;;;;;;;;22.36;19.55;92056.03;2068575;69;20080;-75
2022/03/29 11:49:42;;;;;;;;;;;;;;;21.91;19.50;92040.63;2055530;69;20470;-77
2022/03/29 11:52:11;;;;;;;;;;;;;;;22.07;19.21;92043.59;2055464;69;20052;-74
2022/03/29 11:54:44;;;;;;;;;;;;;;;21.80;19.97;92036.94;2055468;70;20490;-76
2022/03/29 11:57:20;;;;;;;;;;;;;;;21.80;20.40;92020.47;2055633;69;20516;-75
2022/03/29 11:59:46;;;;;;;;;;;;;;;21.85;19.66;92018.34;2068440;69;20153;-75
2022/03/29 12:02:11;;;;;;;;;;;;;;;21.25;19.31;92010.63;2055744;70;20078;-74
2022/03/29 12:04:38;;;;;;;;;;;;;;;21.73;20.58;92007.53;2055603;69;20050;-76
2022/03/29 12:07:03;;;;;;;;;;;;;;;21.86;20.28;91999.06;2068892;69;20050;-75
2022/03/29 12:09:30;;;;;;;;;;;;;;;22.00;19.98;92004.88;2055924;70;20574;-75
2022/03/29 12:11:59;;;;;;;;;;;;;;;22.11;19.68;91986.31;2055547;69;20513;-73
2022/03/29 12:14:25;;;;;;;;;;;;;;;22.18;20.73;91984.25;2055303;70;20116;-75
2022/03/29 12:16:58;;;;;;;;;;;;;;;22.41;20.76;91973.66;2068467;69;20052;-74
2022/03/29 12:19:28;;;;;;;;;;;;;;;22.21;19.85;91965.63;2068314;69;20055;-74
2022/03/29 12:21:56;;;;;;;;;;;;;;;22.56;19.95;91964.38;2068496;69;20234;-75
2022/03/29 12:24:22;;;;;;;;;;;;;;;23.00;19.28;91954.53;2055332;69;20065;-74
2022/03/29 12:26:48;;;;;;;;;;;;;;;22.73;19.75;91953.72;2055642;70;20050;-74
2022/03/29 12:29:16;;;;;;;;;;;;;;;23.91;18.92;91944.59;2055544;70;20141;-76
2022/03/29 12:31:41;;;;;;;;;;;;;;;24.63;18.34;91947.34;2068345;69;20054;-74
2022/03/29 12:34:08;;;;;;;;;;;;;;;24.58;17.39;91938.03;2055438;70;20095;-75
2022/03/29 12:36:37;;;;;;;;;;;;;;;23.59;18.11;91919.44;2055334;70;20070;-74
2022/03/29 12:39:04;;;;;;;;;;;;;;;22.18;18.16;91913.31;2054676;70;20066;-74
2022/03/29 12:41:41;;;;;;;;;;;;;;;23.32;17.55;91912.94;2054877;70;20058;-74
2022/03/29 12:44:26;;;;;;;;;;;;;;;23.45;18.40;91914.41;2054650;69;20741;-73
2022/03/29 12:46:52;;;;;;;;;;;;;;;24.17;17.96;91908.63;2068111;69;20164;-73
2022/03/29 12:49:17;;;;;;;;;;;;;;;25.76;17.15;91902.09;2055103;70;20136;-74
2022/03/29 12:51:43;;;;;;;;;;;;;;;26.51;16.74;91906.44;2055018;70;20474;-74
2022/03/29 12:54:10;;;;;;;;;;;;;;;27.68;15.48;91900.56;2054992;70;20061;-75
2022/03/29 12:56:43;;;;;;;;;;;;;;;29.21;15.40;91897.06;2055027;70;20050;-74
2022/03/29 12:59:45;;;;;;;;;;;;;;;29.61;14.77;91898.38;2055244;69;20059;-74
2022/03/29 13:02:10;;;;;;;;;;;;;;;30.00;14.08;91901.06;2041173;70;20047;-75
2022/03/29 13:04:42;;;;;;;;;;;;;;;29.42;14.68;91885.75;2052385;70;20514;-74
2022/03/29 13:07:09;;;;;;;;;;;;;;;30.78;14.28;91894.00;2055323;69;20498;-74
2022/03/29 13:09:35;;;;;;;;;;;;;;;31.16;13.85;91887.84;2055229;70;20054;-74